sensor_id;sensor_type;location;lat;lon;timestamp;temperature;humidity
9919;DHT22;4998;51.024;13.828;2022-07-30T00:01:04;26.40;45.70
9919;DHT22;4998;51.024;13.828;2022-07-30T00:03:31;26.40;45.80
9919;DHT22;4998;51.024;13.828;2022-07-30T00:06:00;26.40;45.80
9919;DHT22;4998;51.024;13.828;2022-07-30T00:08:27;26.40;46.00
9919;DHT22;4998;51.024;13.828;2022-07-30T00:10:54;26.40;46.00
9919;DHT22;4998;51.024;13.828;2022-07-30T00:13:21;26.40;46.20
9919;DHT22;4998;51.024;13.828;2022-07-30T00:15:48;26.30;46.30
9919;DHT22;4998;51.024;13.828;2022-07-30T00:18:15;26.30;46.70
9919;DHT22;4998;51.024;13.828;2022-07-30T00:20:42;26.20;47.20
9919;DHT22;4998;51.024;13.828;2022-07-30T00:23:10;26.20;47.70
9919;DHT22;4998;51.024;13.828;2022-07-30T00:25:37;26.10;48.10
9919;DHT22;4998;51.024;13.828;2022-07-30T00:28:04;26.10;48.40
9919;DHT22;4998;51.024;13.828;2022-07-30T00:30:31;26.00;48.70
9919;DHT22;4998;51.024;13.828;2022-07-30T00:32:58;25.90;49.70
9919;DHT22;4998;51.024;13.828;2022-07-30T00:35:25;25.80;49.30
9919;DHT22;4998;51.024;13.828;2022-07-30T00:37:52;25.80;49.60
9919;DHT22;4998;51.024;13.828;2022-07-30T00:40:20;25.70;49.80
9919;DHT22;4998;51.024;13.828;2022-07-30T00:42:47;25.70;50.30
9919;DHT22;4998;51.024;13.828;2022-07-30T00:45:15;25.60;50.40
9919;DHT22;4998;51.024;13.828;2022-07-30T00:47:42;25.60;50.90
9919;DHT22;4998;51.024;13.828;2022-07-30T00:50:11;25.50;51.00
9919;DHT22;4998;51.024;13.828;2022-07-30T00:52:39;25.40;51.40
9919;DHT22;4998;51.024;13.828;2022-07-30T00:55:08;25.40;51.70
9919;DHT22;4998;51.024;13.828;2022-07-30T00:57:37;25.30;51.80
9919;DHT22;4998;51.024;13.828;2022-07-30T01:00:06;25.20;52.20
9919;DHT22;4998;51.024;13.828;2022-07-30T01:02:33;25.10;52.40
9919;DHT22;4998;51.024;13.828;2022-07-30T01:05:00;25.10;52.60
9919;DHT22;4998;51.024;13.828;2022-07-30T01:07:27;25.00;52.90
9919;DHT22;4998;51.024;13.828;2022-07-30T01:09:54;25.00;53.10
9919;DHT22;4998;51.024;13.828;2022-07-30T01:12:24;24.90;53.30
9919;DHT22;4998;51.024;13.828;2022-07-30T01:14:53;24.90;53.80
9919;DHT22;4998;51.024;13.828;2022-07-30T01:17:21;24.90;53.90
9919;DHT22;4998;51.024;13.828;2022-07-30T01:19:49;24.80;53.80
9919;DHT22;4998;51.024;13.828;2022-07-30T01:22:34;24.80;54.10
9919;DHT22;4998;51.024;13.828;2022-07-30T01:25:08;24.70;54.50
9919;DHT22;4998;51.024;13.828;2022-07-30T01:27:42;24.70;54.70
9919;DHT22;4998;51.024;13.828;2022-07-30T01:30:11;24.60;54.80
9919;DHT22;4998;51.024;13.828;2022-07-30T01:32:41;24.60;54.80
9919;DHT22;4998;51.024;13.828;2022-07-30T01:35:11;24.60;55.30
9919;DHT22;4998;51.024;13.828;2022-07-30T01:37:39;24.50;55.20
9919;DHT22;4998;51.024;13.828;2022-07-30T01:40:08;24.50;55.50
9919;DHT22;4998;51.024;13.828;2022-07-30T01:42:36;24.40;55.60
9919;DHT22;4998;51.024;13.828;2022-07-30T01:45:06;24.30;55.80
9919;DHT22;4998;51.024;13.828;2022-07-30T01:47:35;24.30;56.40
9919;DHT22;4998;51.024;13.828;2022-07-30T01:50:06;24.30;56.40
9919;DHT22;4998;51.024;13.828;2022-07-30T01:52:35;24.20;56.70
9919;DHT22;4998;51.024;13.828;2022-07-30T01:55:05;24.10;56.80
9919;DHT22;4998;51.024;13.828;2022-07-30T01:57:34;24.10;57.20
9919;DHT22;4998;51.024;13.828;2022-07-30T02:00:06;24.10;57.30
9919;DHT22;4998;51.024;13.828;2022-07-30T02:02:34;24.00;57.40
9919;DHT22;4998;51.024;13.828;2022-07-30T02:05:01;24.00;57.60
9919;DHT22;4998;51.024;13.828;2022-07-30T02:07:33;24.00;57.70
9919;DHT22;4998;51.024;13.828;2022-07-30T02:10:05;24.00;58.20
9919;DHT22;4998;51.024;13.828;2022-07-30T02:12:35;24.00;58.30
9919;DHT22;4998;51.024;13.828;2022-07-30T02:15:10;24.00;58.50
9919;DHT22;4998;51.024;13.828;2022-07-30T02:17:43;23.90;58.70
9919;DHT22;4998;51.024;13.828;2022-07-30T02:20:13;23.90;58.80
9919;DHT22;4998;51.024;13.828;2022-07-30T02:22:45;23.90;59.00
9919;DHT22;4998;51.024;13.828;2022-07-30T02:25:16;23.90;59.30
9919;DHT22;4998;51.024;13.828;2022-07-30T02:27:46;23.80;59.40
9919;DHT22;4998;51.024;13.828;2022-07-30T02:30:16;23.80;59.50
9919;DHT22;4998;51.024;13.828;2022-07-30T02:32:44;23.80;59.90
9919;DHT22;4998;51.024;13.828;2022-07-30T02:35:16;23.80;59.90
9919;DHT22;4998;51.024;13.828;2022-07-30T02:37:44;23.70;60.20
9919;DHT22;4998;51.024;13.828;2022-07-30T02:40:14;23.70;60.20
9919;DHT22;4998;51.024;13.828;2022-07-30T02:42:44;23.70;60.60
9919;DHT22;4998;51.024;13.828;2022-07-30T02:45:12;23.70;60.90
9919;DHT22;4998;51.024;13.828;2022-07-30T02:47:44;23.70;61.10
9919;DHT22;4998;51.024;13.828;2022-07-30T02:50:12;23.70;61.40
9919;DHT22;4998;51.024;13.828;2022-07-30T02:52:40;23.70;61.40
9919;DHT22;4998;51.024;13.828;2022-07-30T02:55:10;23.70;61.70
9919;DHT22;4998;51.024;13.828;2022-07-30T02:57:40;23.70;62.20
9919;DHT22;4998;51.024;13.828;2022-07-30T03:00:09;23.60;62.10
9919;DHT22;4998;51.024;13.828;2022-07-30T03:02:38;23.60;62.40
9919;DHT22;4998;51.024;13.828;2022-07-30T03:05:07;23.60;62.80
9919;DHT22;4998;51.024;13.828;2022-07-30T03:07:35;23.60;63.00
9919;DHT22;4998;51.024;13.828;2022-07-30T03:10:03;23.60;62.90
9919;DHT22;4998;51.024;13.828;2022-07-30T03:12:32;23.50;63.20
9919;DHT22;4998;51.024;13.828;2022-07-30T03:14:59;23.50;63.60
9919;DHT22;4998;51.024;13.828;2022-07-30T03:17:36;23.50;64.70
9919;DHT22;4998;51.024;13.828;2022-07-30T03:20:09;23.50;64.30
9919;DHT22;4998;51.024;13.828;2022-07-30T03:22:41;23.50;64.70
9919;DHT22;4998;51.024;13.828;2022-07-30T03:25:09;23.50;64.80
9919;DHT22;4998;51.024;13.828;2022-07-30T03:27:39;23.50;64.80
9919;DHT22;4998;51.024;13.828;2022-07-30T03:30:08;23.50;65.10
9919;DHT22;4998;51.024;13.828;2022-07-30T03:32:36;23.50;65.10
9919;DHT22;4998;51.024;13.828;2022-07-30T03:35:05;23.50;65.40
9919;DHT22;4998;51.024;13.828;2022-07-30T03:37:35;23.40;65.60
9919;DHT22;4998;51.024;13.828;2022-07-30T03:40:03;23.40;66.20
9919;DHT22;4998;51.024;13.828;2022-07-30T03:42:32;23.40;66.00
9919;DHT22;4998;51.024;13.828;2022-07-30T03:44:59;23.40;66.40
9919;DHT22;4998;51.024;13.828;2022-07-30T03:47:27;23.30;66.60
9919;DHT22;4998;51.024;13.828;2022-07-30T03:49:58;23.40;67.00
9919;DHT22;4998;51.024;13.828;2022-07-30T03:52:25;23.30;67.10
9919;DHT22;4998;51.024;13.828;2022-07-30T03:54:54;23.50;67.70
9919;DHT22;4998;51.024;13.828;2022-07-30T03:57:21;23.30;68.20
9919;DHT22;4998;51.024;13.828;2022-07-30T03:59:49;23.30;68.10
9919;DHT22;4998;51.024;13.828;2022-07-30T04:02:17;23.40;68.30
9919;DHT22;4998;51.024;13.828;2022-07-30T04:04:44;23.40;68.40
9919;DHT22;4998;51.024;13.828;2022-07-30T04:07:11;23.40;68.70
9919;DHT22;4998;51.024;13.828;2022-07-30T04:09:38;23.40;68.90
9919;DHT22;4998;51.024;13.828;2022-07-30T04:12:07;23.30;69.10
9919;DHT22;4998;51.024;13.828;2022-07-30T04:14:39;23.30;69.50
9919;DHT22;4998;51.024;13.828;2022-07-30T04:17:11;23.30;69.90
9919;DHT22;4998;51.024;13.828;2022-07-30T04:19:43;23.30;70.00
9919;DHT22;4998;51.024;13.828;2022-07-30T04:22:15;23.30;70.20
9919;DHT22;4998;51.024;13.828;2022-07-30T04:24:43;23.30;70.20
9919;DHT22;4998;51.024;13.828;2022-07-30T04:27:12;23.30;70.30
9919;DHT22;4998;51.024;13.828;2022-07-30T04:29:40;23.20;70.70
9919;DHT22;4998;51.024;13.828;2022-07-30T04:32:07;23.20;70.70
9919;DHT22;4998;51.024;13.828;2022-07-30T04:34:35;23.20;70.80
9919;DHT22;4998;51.024;13.828;2022-07-30T04:37:02;23.10;70.80
9919;DHT22;4998;51.024;13.828;2022-07-30T04:39:29;23.10;71.10
9919;DHT22;4998;51.024;13.828;2022-07-30T04:41:56;23.10;71.30
9919;DHT22;4998;51.024;13.828;2022-07-30T04:44:24;23.00;71.20
9919;DHT22;4998;51.024;13.828;2022-07-30T04:46:51;23.00;71.70
9919;DHT22;4998;51.024;13.828;2022-07-30T04:49:19;23.00;71.80
9919;DHT22;4998;51.024;13.828;2022-07-30T04:51:48;22.90;72.00
9919;DHT22;4998;51.024;13.828;2022-07-30T04:54:17;22.90;72.20
9919;DHT22;4998;51.024;13.828;2022-07-30T04:56:46;22.80;72.30
9919;DHT22;4998;51.024;13.828;2022-07-30T04:59:15;22.80;72.40
9919;DHT22;4998;51.024;13.828;2022-07-30T05:01:47;22.80;72.70
9919;DHT22;4998;51.024;13.828;2022-07-30T05:04:15;22.70;73.10
9919;DHT22;4998;51.024;13.828;2022-07-30T05:06:44;22.70;73.10
9919;DHT22;4998;51.024;13.828;2022-07-30T05:09:13;22.70;73.20
9919;DHT22;4998;51.024;13.828;2022-07-30T05:11:40;22.70;73.60
9919;DHT22;4998;51.024;13.828;2022-07-30T05:14:08;22.70;73.70
9919;DHT22;4998;51.024;13.828;2022-07-30T05:16:35;22.70;73.80
9919;DHT22;4998;51.024;13.828;2022-07-30T05:19:03;22.70;74.00
9919;DHT22;4998;51.024;13.828;2022-07-30T05:21:30;22.70;74.30
9919;DHT22;4998;51.024;13.828;2022-07-30T05:23:57;22.80;74.30
9919;DHT22;4998;51.024;13.828;2022-07-30T05:26:24;22.80;74.50
9919;DHT22;4998;51.024;13.828;2022-07-30T05:28:51;22.80;74.50
9919;DHT22;4998;51.024;13.828;2022-07-30T05:31:18;22.90;74.40
9919;DHT22;4998;51.024;13.828;2022-07-30T05:33:45;22.90;74.30
9919;DHT22;4998;51.024;13.828;2022-07-30T05:36:13;23.00;74.20
9919;DHT22;4998;51.024;13.828;2022-07-30T05:38:40;22.90;73.80
9919;DHT22;4998;51.024;13.828;2022-07-30T05:41:07;23.00;73.90
9919;DHT22;4998;51.024;13.828;2022-07-30T05:43:34;22.90;73.80
9919;DHT22;4998;51.024;13.828;2022-07-30T05:46:01;22.90;74.10
9919;DHT22;4998;51.024;13.828;2022-07-30T05:48:28;22.90;74.30
9919;DHT22;4998;51.024;13.828;2022-07-30T05:50:56;22.90;74.10
9919;DHT22;4998;51.024;13.828;2022-07-30T05:53:24;22.90;75.10
9919;DHT22;4998;51.024;13.828;2022-07-30T05:55:51;22.90;74.40
9919;DHT22;4998;51.024;13.828;2022-07-30T05:58:19;22.90;74.10
9919;DHT22;4998;51.024;13.828;2022-07-30T06:00:46;22.90;74.10
9919;DHT22;4998;51.024;13.828;2022-07-30T06:03:13;22.90;73.90
9919;DHT22;4998;51.024;13.828;2022-07-30T06:05:40;22.90;73.90
9919;DHT22;4998;51.024;13.828;2022-07-30T06:08:08;22.90;73.90
9919;DHT22;4998;51.024;13.828;2022-07-30T06:10:36;22.90;73.90
9919;DHT22;4998;51.024;13.828;2022-07-30T06:13:03;23.00;74.10
9919;DHT22;4998;51.024;13.828;2022-07-30T06:15:30;23.00;74.20
9919;DHT22;4998;51.024;13.828;2022-07-30T06:17:57;22.90;74.20
9919;DHT22;4998;51.024;13.828;2022-07-30T06:20:25;23.00;74.40
9919;DHT22;4998;51.024;13.828;2022-07-30T06:22:52;23.00;74.50
9919;DHT22;4998;51.024;13.828;2022-07-30T06:25:18;23.00;74.50
9919;DHT22;4998;51.024;13.828;2022-07-30T06:27:47;23.00;74.40
9919;DHT22;4998;51.024;13.828;2022-07-30T06:30:14;23.10;74.50
9919;DHT22;4998;51.024;13.828;2022-07-30T06:32:41;23.10;74.40
9919;DHT22;4998;51.024;13.828;2022-07-30T06:35:10;23.10;74.20
9919;DHT22;4998;51.024;13.828;2022-07-30T06:37:37;23.10;74.90
9919;DHT22;4998;51.024;13.828;2022-07-30T06:40:05;23.10;74.00
9919;DHT22;4998;51.024;13.828;2022-07-30T06:42:33;23.10;74.00
9919;DHT22;4998;51.024;13.828;2022-07-30T06:45:01;23.10;74.10
9919;DHT22;4998;51.024;13.828;2022-07-30T06:47:28;23.00;74.10
9919;DHT22;4998;51.024;13.828;2022-07-30T06:49:55;23.00;73.90
9919;DHT22;4998;51.024;13.828;2022-07-30T06:52:23;23.00;73.90
9919;DHT22;4998;51.024;13.828;2022-07-30T06:54:50;23.00;74.00
9919;DHT22;4998;51.024;13.828;2022-07-30T06:57:17;22.80;73.90
9919;DHT22;4998;51.024;13.828;2022-07-30T06:59:43;22.90;74.00
9919;DHT22;4998;51.024;13.828;2022-07-30T07:02:12;22.90;74.10
9919;DHT22;4998;51.024;13.828;2022-07-30T07:04:39;22.90;74.20
9919;DHT22;4998;51.024;13.828;2022-07-30T07:07:06;22.90;74.40
9919;DHT22;4998;51.024;13.828;2022-07-30T07:09:33;22.90;74.10
9919;DHT22;4998;51.024;13.828;2022-07-30T07:12:00;23.00;73.80
9919;DHT22;4998;51.024;13.828;2022-07-30T07:14:27;23.00;73.80
9919;DHT22;4998;51.024;13.828;2022-07-30T07:16:54;23.10;73.40
9919;DHT22;4998;51.024;13.828;2022-07-30T07:19:22;23.10;73.00
9919;DHT22;4998;51.024;13.828;2022-07-30T07:21:49;23.20;72.60
9919;DHT22;4998;51.024;13.828;2022-07-30T07:24:16;23.20;72.20
9919;DHT22;4998;51.024;13.828;2022-07-30T07:26:43;23.20;72.00
9919;DHT22;4998;51.024;13.828;2022-07-30T07:29:10;23.30;72.00
9919;DHT22;4998;51.024;13.828;2022-07-30T07:31:37;23.30;72.00
9919;DHT22;4998;51.024;13.828;2022-07-30T07:34:04;23.30;72.00
9919;DHT22;4998;51.024;13.828;2022-07-30T07:36:33;23.30;71.90
9919;DHT22;4998;51.024;13.828;2022-07-30T07:39:01;23.40;71.70
9919;DHT22;4998;51.024;13.828;2022-07-30T07:41:28;23.40;71.40
9919;DHT22;4998;51.024;13.828;2022-07-30T07:43:55;23.50;71.30
9919;DHT22;4998;51.024;13.828;2022-07-30T07:46:21;23.50;70.80
9919;DHT22;4998;51.024;13.828;2022-07-30T07:48:48;23.50;70.50
9919;DHT22;4998;51.024;13.828;2022-07-30T07:51:15;23.50;70.50
9919;DHT22;4998;51.024;13.828;2022-07-30T07:53:44;23.50;70.50
9919;DHT22;4998;51.024;13.828;2022-07-30T07:56:10;23.50;70.60
9919;DHT22;4998;51.024;13.828;2022-07-30T07:58:38;23.50;70.40
9919;DHT22;4998;51.024;13.828;2022-07-30T08:01:05;23.40;70.70
9919;DHT22;4998;51.024;13.828;2022-07-30T08:03:32;23.40;70.00
9919;DHT22;4998;51.024;13.828;2022-07-30T08:05:59;23.40;70.20
9919;DHT22;4998;51.024;13.828;2022-07-30T08:08:26;23.40;70.60
9919;DHT22;4998;51.024;13.828;2022-07-30T08:10:55;23.40;70.70
9919;DHT22;4998;51.024;13.828;2022-07-30T08:13:22;23.40;71.40
9919;DHT22;4998;51.024;13.828;2022-07-30T08:15:49;23.40;71.60
9919;DHT22;4998;51.024;13.828;2022-07-30T08:18:16;23.40;71.80
9919;DHT22;4998;51.024;13.828;2022-07-30T08:20:43;23.50;72.50
9919;DHT22;4998;51.024;13.828;2022-07-30T08:23:10;23.50;72.80
9919;DHT22;4998;51.024;13.828;2022-07-30T08:25:37;23.60;73.10
9919;DHT22;4998;51.024;13.828;2022-07-30T08:28:05;23.60;73.00
9919;DHT22;4998;51.024;13.828;2022-07-30T08:30:32;23.60;73.40
9919;DHT22;4998;51.024;13.828;2022-07-30T08:32:59;23.60;73.30
9919;DHT22;4998;51.024;13.828;2022-07-30T08:35:26;23.70;73.50
9919;DHT22;4998;51.024;13.828;2022-07-30T08:37:53;23.60;73.40
9919;DHT22;4998;51.024;13.828;2022-07-30T08:40:20;23.60;73.50
9919;DHT22;4998;51.024;13.828;2022-07-30T08:42:51;23.60;73.70
9919;DHT22;4998;51.024;13.828;2022-07-30T08:45:20;23.60;73.90
9919;DHT22;4998;51.024;13.828;2022-07-30T08:47:49;23.60;74.10
9919;DHT22;4998;51.024;13.828;2022-07-30T08:50:17;23.60;74.10
9919;DHT22;4998;51.024;13.828;2022-07-30T08:52:44;23.60;74.10
9919;DHT22;4998;51.024;13.828;2022-07-30T08:55:15;23.60;74.20
9919;DHT22;4998;51.024;13.828;2022-07-30T08:57:42;23.50;74.10
9919;DHT22;4998;51.024;13.828;2022-07-30T09:00:13;23.50;74.00
9919;DHT22;4998;51.024;13.828;2022-07-30T09:02:42;23.50;74.00
9919;DHT22;4998;51.024;13.828;2022-07-30T09:05:11;23.40;74.40
9919;DHT22;4998;51.024;13.828;2022-07-30T09:07:38;23.40;74.60
9919;DHT22;4998;51.024;13.828;2022-07-30T09:10:07;23.40;74.80
9919;DHT22;4998;51.024;13.828;2022-07-30T09:12:37;23.40;74.90
9919;DHT22;4998;51.024;13.828;2022-07-30T09:15:07;23.40;74.70
9919;DHT22;4998;51.024;13.828;2022-07-30T09:18:00;23.40;74.50
9919;DHT22;4998;51.024;13.828;2022-07-30T09:20:29;23.30;74.20
9919;DHT22;4998;51.024;13.828;2022-07-30T09:22:58;23.30;74.40
9919;DHT22;4998;51.024;13.828;2022-07-30T09:25:36;23.30;74.20
9919;DHT22;4998;51.024;13.828;2022-07-30T09:28:04;23.30;73.80
9919;DHT22;4998;51.024;13.828;2022-07-30T09:30:43;23.30;73.40
9919;DHT22;4998;51.024;13.828;2022-07-30T09:33:12;23.30;73.40
9919;DHT22;4998;51.024;13.828;2022-07-30T09:35:40;23.20;72.90
9919;DHT22;4998;51.024;13.828;2022-07-30T09:38:08;23.20;72.80
9919;DHT22;4998;51.024;13.828;2022-07-30T09:40:35;23.20;72.90
9919;DHT22;4998;51.024;13.828;2022-07-30T09:43:04;23.10;72.90
9919;DHT22;4998;51.024;13.828;2022-07-30T09:45:31;23.10;73.00
9919;DHT22;4998;51.024;13.828;2022-07-30T09:47:59;23.00;72.90
9919;DHT22;4998;51.024;13.828;2022-07-30T09:50:28;23.00;73.20
9919;DHT22;4998;51.024;13.828;2022-07-30T09:53:05;23.00;73.50
9919;DHT22;4998;51.024;13.828;2022-07-30T09:55:34;23.00;73.80
9919;DHT22;4998;51.024;13.828;2022-07-30T09:58:02;22.90;73.80
9919;DHT22;4998;51.024;13.828;2022-07-30T10:00:31;22.90;74.00
9919;DHT22;4998;51.024;13.828;2022-07-30T10:02:59;22.90;74.40
9919;DHT22;4998;51.024;13.828;2022-07-30T10:05:27;22.80;75.00
9919;DHT22;4998;51.024;13.828;2022-07-30T10:07:56;22.80;75.40
9919;DHT22;4998;51.024;13.828;2022-07-30T10:10:26;22.70;75.70
9919;DHT22;4998;51.024;13.828;2022-07-30T10:12:57;22.60;76.40
9919;DHT22;4998;51.024;13.828;2022-07-30T10:15:29;22.50;77.00
9919;DHT22;4998;51.024;13.828;2022-07-30T10:17:58;22.40;77.50
9919;DHT22;4998;51.024;13.828;2022-07-30T10:20:27;22.40;77.90
9919;DHT22;4998;51.024;13.828;2022-07-30T10:22:54;22.30;78.40
9919;DHT22;4998;51.024;13.828;2022-07-30T10:25:23;22.30;78.80
9919;DHT22;4998;51.024;13.828;2022-07-30T10:27:50;22.20;79.40
9919;DHT22;4998;51.024;13.828;2022-07-30T10:30:18;22.20;79.70
9919;DHT22;4998;51.024;13.828;2022-07-30T10:32:45;22.20;80.30
9919;DHT22;4998;51.024;13.828;2022-07-30T10:35:12;22.10;80.60
9919;DHT22;4998;51.024;13.828;2022-07-30T10:37:44;22.10;80.80
9919;DHT22;4998;51.024;13.828;2022-07-30T10:40:29;22.10;81.70
9919;DHT22;4998;51.024;13.828;2022-07-30T10:43:16;22.10;81.60
9919;DHT22;4998;51.024;13.828;2022-07-30T10:45:57;22.10;81.50
9919;DHT22;4998;51.024;13.828;2022-07-30T10:48:25;22.10;82.60
9919;DHT22;4998;51.024;13.828;2022-07-30T10:50:54;22.20;82.70
9919;DHT22;4998;51.024;13.828;2022-07-30T10:53:39;22.20;83.30
9919;DHT22;4998;51.024;13.828;2022-07-30T10:56:12;22.30;83.50
9919;DHT22;4998;51.024;13.828;2022-07-30T10:59:01;22.40;84.20
9919;DHT22;4998;51.024;13.828;2022-07-30T11:02:07;22.50;84.60
9919;DHT22;4998;51.024;13.828;2022-07-30T11:04:35;22.70;84.40
9919;DHT22;4998;51.024;13.828;2022-07-30T11:07:27;22.80;84.00
9919;DHT22;4998;51.024;13.828;2022-07-30T11:09:57;22.90;84.30
9919;DHT22;4998;51.024;13.828;2022-07-30T11:12:53;23.00;84.00
9919;DHT22;4998;51.024;13.828;2022-07-30T11:15:21;23.10;83.40
9919;DHT22;4998;51.024;13.828;2022-07-30T11:18:06;23.20;82.70
9919;DHT22;4998;51.024;13.828;2022-07-30T11:20:34;23.30;82.50
9919;DHT22;4998;51.024;13.828;2022-07-30T11:23:09;23.40;81.90
9919;DHT22;4998;51.024;13.828;2022-07-30T11:25:41;23.50;81.80
9919;DHT22;4998;51.024;13.828;2022-07-30T11:28:33;23.50;81.40
9919;DHT22;4998;51.024;13.828;2022-07-30T11:31:01;23.60;81.30
9919;DHT22;4998;51.024;13.828;2022-07-30T11:33:28;23.60;81.30
9919;DHT22;4998;51.024;13.828;2022-07-30T11:36:13;23.60;81.20
9919;DHT22;4998;51.024;13.828;2022-07-30T11:38:51;23.70;80.80
9919;DHT22;4998;51.024;13.828;2022-07-30T11:41:19;23.70;81.10
9919;DHT22;4998;51.024;13.828;2022-07-30T11:43:46;23.70;80.90
9919;DHT22;4998;51.024;13.828;2022-07-30T11:46:14;23.80;81.10
9919;DHT22;4998;51.024;13.828;2022-07-30T11:48:54;23.90;80.50
9919;DHT22;4998;51.024;13.828;2022-07-30T11:51:22;24.00;79.80
9919;DHT22;4998;51.024;13.828;2022-07-30T11:54:00;24.00;79.30
9919;DHT22;4998;51.024;13.828;2022-07-30T11:56:29;24.00;78.80
9919;DHT22;4998;51.024;13.828;2022-07-30T11:59:00;24.10;78.60
9919;DHT22;4998;51.024;13.828;2022-07-30T12:01:28;24.10;78.60
9919;DHT22;4998;51.024;13.828;2022-07-30T12:04:01;24.20;78.00
9919;DHT22;4998;51.024;13.828;2022-07-30T12:06:29;24.30;77.60
9919;DHT22;4998;51.024;13.828;2022-07-30T12:08:57;24.40;77.50
9919;DHT22;4998;51.024;13.828;2022-07-30T12:11:24;24.40;76.60
9919;DHT22;4998;51.024;13.828;2022-07-30T12:13:59;24.40;76.40
9919;DHT22;4998;51.024;13.828;2022-07-30T12:16:28;24.50;76.40
9919;DHT22;4998;51.024;13.828;2022-07-30T12:19:00;24.50;76.30
9919;DHT22;4998;51.024;13.828;2022-07-30T12:21:27;24.50;76.10
9919;DHT22;4998;51.024;13.828;2022-07-30T12:23:56;24.60;75.80
9919;DHT22;4998;51.024;13.828;2022-07-30T12:26:25;24.60;75.20
9919;DHT22;4998;51.024;13.828;2022-07-30T12:28:54;24.70;75.10
9919;DHT22;4998;51.024;13.828;2022-07-30T12:31:23;24.70;74.60
9919;DHT22;4998;51.024;13.828;2022-07-30T12:33:50;24.70;75.00
9919;DHT22;4998;51.024;13.828;2022-07-30T12:36:25;24.80;74.90
9919;DHT22;4998;51.024;13.828;2022-07-30T12:38:52;24.80;74.30
9919;DHT22;4998;51.024;13.828;2022-07-30T12:41:21;24.90;73.10
9919;DHT22;4998;51.024;13.828;2022-07-30T12:43:49;25.00;72.40
9919;DHT22;4998;51.024;13.828;2022-07-30T12:46:19;25.10;72.40
9919;DHT22;4998;51.024;13.828;2022-07-30T12:48:55;25.20;71.50
9919;DHT22;4998;51.024;13.828;2022-07-30T12:51:27;25.20;71.30
9919;DHT22;4998;51.024;13.828;2022-07-30T12:53:55;25.30;71.40
9919;DHT22;4998;51.024;13.828;2022-07-30T12:56:24;25.30;71.30
9919;DHT22;4998;51.024;13.828;2022-07-30T12:58:52;25.40;71.70
9919;DHT22;4998;51.024;13.828;2022-07-30T13:01:40;25.40;71.20
9919;DHT22;4998;51.024;13.828;2022-07-30T13:04:09;25.50;71.10
9919;DHT22;4998;51.024;13.828;2022-07-30T13:06:36;25.60;70.60
9919;DHT22;4998;51.024;13.828;2022-07-30T13:09:06;25.60;70.60
9919;DHT22;4998;51.024;13.828;2022-07-30T13:11:39;25.60;70.20
9919;DHT22;4998;51.024;13.828;2022-07-30T13:14:06;25.60;69.50
9919;DHT22;4998;51.024;13.828;2022-07-30T13:16:35;25.60;69.20
9919;DHT22;4998;51.024;13.828;2022-07-30T13:19:02;25.60;68.90
9919;DHT22;4998;51.024;13.828;2022-07-30T13:21:30;25.60;68.40
9919;DHT22;4998;51.024;13.828;2022-07-30T13:23:59;25.60;68.10
9919;DHT22;4998;51.024;13.828;2022-07-30T13:26:26;25.50;67.90
9919;DHT22;4998;51.024;13.828;2022-07-30T13:28:54;25.50;68.00
9919;DHT22;4998;51.024;13.828;2022-07-30T13:31:21;25.60;67.80
9919;DHT22;4998;51.024;13.828;2022-07-30T13:33:48;25.40;67.80
9919;DHT22;4998;51.024;13.828;2022-07-30T13:36:16;25.40;68.00
9919;DHT22;4998;51.024;13.828;2022-07-30T13:38:45;25.40;68.20
9919;DHT22;4998;51.024;13.828;2022-07-30T13:41:12;25.40;67.70
9919;DHT22;4998;51.024;13.828;2022-07-30T13:43:41;25.40;67.50
9919;DHT22;4998;51.024;13.828;2022-07-30T13:46:08;25.40;66.80
9919;DHT22;4998;51.024;13.828;2022-07-30T13:48:35;25.50;66.80
9919;DHT22;4998;51.024;13.828;2022-07-30T13:51:03;25.60;66.70
9919;DHT22;4998;51.024;13.828;2022-07-30T13:53:30;25.60;66.30
9919;DHT22;4998;51.024;13.828;2022-07-30T13:55:59;25.80;65.90
9919;DHT22;4998;51.024;13.828;2022-07-30T13:58:26;25.80;65.10
9919;DHT22;4998;51.024;13.828;2022-07-30T14:00:53;25.90;65.00
9919;DHT22;4998;51.024;13.828;2022-07-30T14:03:21;26.00;63.80
9919;DHT22;4998;51.024;13.828;2022-07-30T14:05:48;26.00;63.00
9919;DHT22;4998;51.024;13.828;2022-07-30T14:08:15;26.10;62.30
9919;DHT22;4998;51.024;13.828;2022-07-30T14:10:41;26.10;61.60
9919;DHT22;4998;51.024;13.828;2022-07-30T14:13:10;26.10;61.20
9919;DHT22;4998;51.024;13.828;2022-07-30T14:15:37;26.10;60.80
9919;DHT22;4998;51.024;13.828;2022-07-30T14:18:04;26.10;61.50
9919;DHT22;4998;51.024;13.828;2022-07-30T14:20:31;26.10;60.50
9919;DHT22;4998;51.024;13.828;2022-07-30T14:22:58;26.20;60.30
9919;DHT22;4998;51.024;13.828;2022-07-30T14:25:25;26.20;60.10
9919;DHT22;4998;51.024;13.828;2022-07-30T14:27:52;26.20;60.00
9919;DHT22;4998;51.024;13.828;2022-07-30T14:30:21;26.20;59.60
9919;DHT22;4998;51.024;13.828;2022-07-30T14:32:49;26.20;59.20
9919;DHT22;4998;51.024;13.828;2022-07-30T14:35:16;26.20;59.30
9919;DHT22;4998;51.024;13.828;2022-07-30T14:37:43;26.20;59.20
9919;DHT22;4998;51.024;13.828;2022-07-30T14:40:11;26.20;58.60
9919;DHT22;4998;51.024;13.828;2022-07-30T14:42:38;26.20;58.90
9919;DHT22;4998;51.024;13.828;2022-07-30T14:45:07;26.30;58.80
9919;DHT22;4998;51.024;13.828;2022-07-30T14:47:36;26.30;58.30
9919;DHT22;4998;51.024;13.828;2022-07-30T14:50:04;26.40;57.60
9919;DHT22;4998;51.024;13.828;2022-07-30T14:52:31;26.40;57.60
9919;DHT22;4998;51.024;13.828;2022-07-30T14:55:00;26.40;57.20
9919;DHT22;4998;51.024;13.828;2022-07-30T14:57:27;26.40;57.30
9919;DHT22;4998;51.024;13.828;2022-07-30T14:59:54;26.40;57.10
9919;DHT22;4998;51.024;13.828;2022-07-30T15:02:21;26.40;56.90
9919;DHT22;4998;51.024;13.828;2022-07-30T15:04:50;26.50;56.40
9919;DHT22;4998;51.024;13.828;2022-07-30T15:07:17;26.50;56.10
9919;DHT22;4998;51.024;13.828;2022-07-30T15:09:44;26.50;56.20
9919;DHT22;4998;51.024;13.828;2022-07-30T15:12:11;26.60;56.20
9919;DHT22;4998;51.024;13.828;2022-07-30T15:14:41;26.60;55.90
9919;DHT22;4998;51.024;13.828;2022-07-30T15:17:10;26.70;55.60
9919;DHT22;4998;51.024;13.828;2022-07-30T15:19:37;26.70;55.40
9919;DHT22;4998;51.024;13.828;2022-07-30T15:22:06;26.70;55.30
9919;DHT22;4998;51.024;13.828;2022-07-30T15:24:33;26.70;55.00
9919;DHT22;4998;51.024;13.828;2022-07-30T15:27:01;26.70;55.00
9919;DHT22;4998;51.024;13.828;2022-07-30T15:29:28;26.80;55.10
9919;DHT22;4998;51.024;13.828;2022-07-30T15:31:55;26.80;55.00
9919;DHT22;4998;51.024;13.828;2022-07-30T15:34:24;26.80;55.30
9919;DHT22;4998;51.024;13.828;2022-07-30T15:36:52;26.90;55.20
9919;DHT22;4998;51.024;13.828;2022-07-30T15:39:21;27.00;54.70
9919;DHT22;4998;51.024;13.828;2022-07-30T15:41:48;27.00;54.50
9919;DHT22;4998;51.024;13.828;2022-07-30T15:44:17;27.10;54.40
9919;DHT22;4998;51.024;13.828;2022-07-30T15:46:44;27.20;54.20
9919;DHT22;4998;51.024;13.828;2022-07-30T15:49:11;27.30;54.90
9919;DHT22;4998;51.024;13.828;2022-07-30T15:51:38;27.40;54.10
9919;DHT22;4998;51.024;13.828;2022-07-30T15:54:12;27.60;53.80
9919;DHT22;4998;51.024;13.828;2022-07-30T15:56:40;27.50;53.50